sensor_id;sensor_type;location;lat;lon;timestamp;temperature;humidity
14577;DHT22;7375;46.072;14.470;2022-10-16T00:00:21;20.50;85.60
14577;DHT22;7375;46.072;14.470;2022-10-16T00:02:47;20.50;85.90
14577;DHT22;7375;46.072;14.470;2022-10-16T00:05:14;20.50;85.70
14577;DHT22;7375;46.072;14.470;2022-10-16T00:07:42;20.50;85.60
14577;DHT22;7375;46.072;14.470;2022-10-16T00:10:09;20.50;85.70
14577;DHT22;7375;46.072;14.470;2022-10-16T00:12:36;20.50;85.80
14577;DHT22;7375;46.072;14.470;2022-10-16T00:15:03;20.50;85.80
14577;DHT22;7375;46.072;14.470;2022-10-16T00:17:29;20.50;85.80
14577;DHT22;7375;46.072;14.470;2022-10-16T00:19:56;20.50;85.80
14577;DHT22;7375;46.072;14.470;2022-10-16T00:22:23;20.50;85.90
14577;DHT22;7375;46.072;14.470;2022-10-16T00:24:51;20.50;85.90
14577;DHT22;7375;46.072;14.470;2022-10-16T00:27:18;20.50;85.90
14577;DHT22;7375;46.072;14.470;2022-10-16T00:29:45;20.50;86.00
14577;DHT22;7375;46.072;14.470;2022-10-16T00:32:15;20.50;86.10
14577;DHT22;7375;46.072;14.470;2022-10-16T00:34:42;20.50;86.10
14577;DHT22;7375;46.072;14.470;2022-10-16T00:37:09;20.50;86.10
14577;DHT22;7375;46.072;14.470;2022-10-16T00:39:36;20.40;85.90
14577;DHT22;7375;46.072;14.470;2022-10-16T00:42:04;20.40;86.10
14577;DHT22;7375;46.072;14.470;2022-10-16T00:44:45;20.40;86.10
14577;DHT22;7375;46.072;14.470;2022-10-16T00:47:13;20.40;86.20
14577;DHT22;7375;46.072;14.470;2022-10-16T00:49:41;20.40;86.20
14577;DHT22;7375;46.072;14.470;2022-10-16T00:52:08;20.40;86.20
14577;DHT22;7375;46.072;14.470;2022-10-16T00:54:36;20.40;86.30
14577;DHT22;7375;46.072;14.470;2022-10-16T00:57:05;20.40;86.30
14577;DHT22;7375;46.072;14.470;2022-10-16T00:59:33;20.40;86.40
14577;DHT22;7375;46.072;14.470;2022-10-16T01:02:00;20.40;86.40
14577;DHT22;7375;46.072;14.470;2022-10-16T01:04:28;20.40;86.40
14577;DHT22;7375;46.072;14.470;2022-10-16T01:06:58;20.40;86.50
14577;DHT22;7375;46.072;14.470;2022-10-16T01:09:30;20.40;86.50
14577;DHT22;7375;46.072;14.470;2022-10-16T01:12:01;20.40;86.60
14577;DHT22;7375;46.072;14.470;2022-10-16T01:14:34;20.40;86.60
14577;DHT22;7375;46.072;14.470;2022-10-16T01:17:04;20.40;86.60
14577;DHT22;7375;46.072;14.470;2022-10-16T01:19:36;20.40;86.60
14577;DHT22;7375;46.072;14.470;2022-10-16T01:22:05;20.40;86.70
14577;DHT22;7375;46.072;14.470;2022-10-16T01:24:37;20.40;86.70
14577;DHT22;7375;46.072;14.470;2022-10-16T01:27:08;20.40;86.80
14577;DHT22;7375;46.072;14.470;2022-10-16T01:29:36;20.40;86.80
14577;DHT22;7375;46.072;14.470;2022-10-16T01:32:10;20.40;86.80
14577;DHT22;7375;46.072;14.470;2022-10-16T01:34:38;20.40;86.80
14577;DHT22;7375;46.072;14.470;2022-10-16T01:37:09;20.40;86.90
14577;DHT22;7375;46.072;14.470;2022-10-16T01:39:38;20.30;86.80
14577;DHT22;7375;46.072;14.470;2022-10-16T01:42:08;20.30;86.90
14577;DHT22;7375;46.072;14.470;2022-10-16T01:44:35;20.40;87.00
14577;DHT22;7375;46.072;14.470;2022-10-16T01:47:04;20.40;87.00
14577;DHT22;7375;46.072;14.470;2022-10-16T01:49:32;20.30;86.90
14577;DHT22;7375;46.072;14.470;2022-10-16T01:52:02;20.40;87.00
14577;DHT22;7375;46.072;14.470;2022-10-16T01:54:30;20.30;86.90
14577;DHT22;7375;46.072;14.470;2022-10-16T01:56:57;20.30;87.00
14577;DHT22;7375;46.072;14.470;2022-10-16T01:59:26;20.30;87.00
14577;DHT22;7375;46.072;14.470;2022-10-16T02:01:56;20.30;87.00
14577;DHT22;7375;46.072;14.470;2022-10-16T02:04:26;20.30;87.10
14577;DHT22;7375;46.072;14.470;2022-10-16T02:06:54;20.30;87.10
14577;DHT22;7375;46.072;14.470;2022-10-16T02:09:21;20.30;87.00
14577;DHT22;7375;46.072;14.470;2022-10-16T02:11:48;20.30;87.10
14577;DHT22;7375;46.072;14.470;2022-10-16T02:14:16;20.30;87.10
14577;DHT22;7375;46.072;14.470;2022-10-16T02:16:44;20.30;87.20
14577;DHT22;7375;46.072;14.470;2022-10-16T02:19:11;20.30;87.30
14577;DHT22;7375;46.072;14.470;2022-10-16T02:21:39;20.30;87.30
14577;DHT22;7375;46.072;14.470;2022-10-16T02:24:08;20.30;87.30
14577;DHT22;7375;46.072;14.470;2022-10-16T02:26:39;20.30;87.30
14577;DHT22;7375;46.072;14.470;2022-10-16T02:29:10;20.30;87.40
14577;DHT22;7375;46.072;14.470;2022-10-16T02:31:38;20.30;87.40
14577;DHT22;7375;46.072;14.470;2022-10-16T02:34:08;20.30;87.40
14577;DHT22;7375;46.072;14.470;2022-10-16T02:36:37;20.30;87.40
14577;DHT22;7375;46.072;14.470;2022-10-16T02:39:04;20.30;87.50
14577;DHT22;7375;46.072;14.470;2022-10-16T02:41:31;20.30;87.50
14577;DHT22;7375;46.072;14.470;2022-10-16T02:43:58;20.30;87.50
14577;DHT22;7375;46.072;14.470;2022-10-16T02:46:25;20.30;87.60
14577;DHT22;7375;46.072;14.470;2022-10-16T02:48:52;20.30;87.60
14577;DHT22;7375;46.072;14.470;2022-10-16T02:51:20;20.30;87.60
14577;DHT22;7375;46.072;14.470;2022-10-16T02:53:47;20.30;87.60
14577;DHT22;7375;46.072;14.470;2022-10-16T02:56:13;20.30;87.60
14577;DHT22;7375;46.072;14.470;2022-10-16T02:58:40;20.30;87.70
14577;DHT22;7375;46.072;14.470;2022-10-16T03:01:07;20.30;87.60
14577;DHT22;7375;46.072;14.470;2022-10-16T03:03:34;20.30;87.80
14577;DHT22;7375;46.072;14.470;2022-10-16T03:06:01;20.30;87.80
14577;DHT22;7375;46.072;14.470;2022-10-16T03:08:29;20.30;87.80
14577;DHT22;7375;46.072;14.470;2022-10-16T03:10:56;20.30;87.80
14577;DHT22;7375;46.072;14.470;2022-10-16T03:13:23;20.30;87.80
14577;DHT22;7375;46.072;14.470;2022-10-16T03:15:49;20.30;87.80
14577;DHT22;7375;46.072;14.470;2022-10-16T03:18:16;20.30;87.80
14577;DHT22;7375;46.072;14.470;2022-10-16T03:20:43;20.30;87.80
14577;DHT22;7375;46.072;14.470;2022-10-16T03:23:09;20.30;87.80
14577;DHT22;7375;46.072;14.470;2022-10-16T03:25:37;20.30;87.80
14577;DHT22;7375;46.072;14.470;2022-10-16T03:28:04;20.30;87.80
14577;DHT22;7375;46.072;14.470;2022-10-16T03:30:31;20.30;87.70
14577;DHT22;7375;46.072;14.470;2022-10-16T03:32:58;20.30;87.70
14577;DHT22;7375;46.072;14.470;2022-10-16T03:35:24;20.30;87.70
14577;DHT22;7375;46.072;14.470;2022-10-16T03:37:51;20.30;87.60
14577;DHT22;7375;46.072;14.470;2022-10-16T03:40:18;20.30;87.60
14577;DHT22;7375;46.072;14.470;2022-10-16T03:42:46;20.30;87.60
14577;DHT22;7375;46.072;14.470;2022-10-16T03:45:12;20.30;87.60
14577;DHT22;7375;46.072;14.470;2022-10-16T03:47:39;20.40;87.60
14577;DHT22;7375;46.072;14.470;2022-10-16T03:50:06;20.40;87.50
14577;DHT22;7375;46.072;14.470;2022-10-16T03:52:33;20.40;87.40
14577;DHT22;7375;46.072;14.470;2022-10-16T03:55:00;20.40;87.50
14577;DHT22;7375;46.072;14.470;2022-10-16T03:57:26;20.40;87.40
14577;DHT22;7375;46.072;14.470;2022-10-16T03:59:55;20.40;87.30
14577;DHT22;7375;46.072;14.470;2022-10-16T04:02:21;20.40;87.50
14577;DHT22;7375;46.072;14.470;2022-10-16T04:04:48;20.40;87.50
14577;DHT22;7375;46.072;14.470;2022-10-16T04:07:15;20.40;87.40
14577;DHT22;7375;46.072;14.470;2022-10-16T04:09:41;20.40;87.30
14577;DHT22;7375;46.072;14.470;2022-10-16T04:12:08;20.40;87.30
14577;DHT22;7375;46.072;14.470;2022-10-16T04:14:35;20.40;87.90
14577;DHT22;7375;46.072;14.470;2022-10-16T04:17:03;20.40;87.30
14577;DHT22;7375;46.072;14.470;2022-10-16T04:19:30;20.40;87.30
14577;DHT22;7375;46.072;14.470;2022-10-16T04:21:56;20.40;87.20
14577;DHT22;7375;46.072;14.470;2022-10-16T04:24:23;20.40;87.20
14577;DHT22;7375;46.072;14.470;2022-10-16T04:26:50;20.40;87.20
14577;DHT22;7375;46.072;14.470;2022-10-16T04:29:16;20.40;87.20
14577;DHT22;7375;46.072;14.470;2022-10-16T04:31:43;20.40;87.20
14577;DHT22;7375;46.072;14.470;2022-10-16T04:34:11;20.40;87.20
14577;DHT22;7375;46.072;14.470;2022-10-16T04:36:38;20.40;87.30
14577;DHT22;7375;46.072;14.470;2022-10-16T04:39:04;20.40;87.20
14577;DHT22;7375;46.072;14.470;2022-10-16T04:41:31;20.40;87.30
14577;DHT22;7375;46.072;14.470;2022-10-16T04:43:58;20.40;87.40
14577;DHT22;7375;46.072;14.470;2022-10-16T04:46:24;20.40;87.30
14577;DHT22;7375;46.072;14.470;2022-10-16T04:48:51;20.40;87.30
14577;DHT22;7375;46.072;14.470;2022-10-16T04:51:20;20.40;87.20
14577;DHT22;7375;46.072;14.470;2022-10-16T04:53:47;20.40;87.30
14577;DHT22;7375;46.072;14.470;2022-10-16T04:56:13;20.40;87.30
14577;DHT22;7375;46.072;14.470;2022-10-16T04:58:40;20.40;87.20
14577;DHT22;7375;46.072;14.470;2022-10-16T05:01:07;20.40;87.20
14577;DHT22;7375;46.072;14.470;2022-10-16T05:03:34;20.40;87.30
14577;DHT22;7375;46.072;14.470;2022-10-16T05:06:00;20.40;87.20
14577;DHT22;7375;46.072;14.470;2022-10-16T05:08:30;20.40;87.20
14577;DHT22;7375;46.072;14.470;2022-10-16T05:10:58;20.50;87.20
14577;DHT22;7375;46.072;14.470;2022-10-16T05:13:25;20.40;87.10
14577;DHT22;7375;46.072;14.470;2022-10-16T05:15:51;20.40;87.10
14577;DHT22;7375;46.072;14.470;2022-10-16T05:18:18;20.40;87.00
14577;DHT22;7375;46.072;14.470;2022-10-16T05:20:45;20.40;87.10
14577;DHT22;7375;46.072;14.470;2022-10-16T05:23:11;20.40;87.00
14577;DHT22;7375;46.072;14.470;2022-10-16T05:25:39;20.40;87.00
14577;DHT22;7375;46.072;14.470;2022-10-16T05:28:06;20.40;87.10
14577;DHT22;7375;46.072;14.470;2022-10-16T05:30:33;20.50;87.20
14577;DHT22;7375;46.072;14.470;2022-10-16T05:33:00;20.40;86.90
14577;DHT22;7375;46.072;14.470;2022-10-16T05:35:26;20.40;86.70
14577;DHT22;7375;46.072;14.470;2022-10-16T05:37:53;20.40;86.80
14577;DHT22;7375;46.072;14.470;2022-10-16T05:40:20;20.40;86.80
14577;DHT22;7375;46.072;14.470;2022-10-16T05:42:50;20.40;86.80
14577;DHT22;7375;46.072;14.470;2022-10-16T05:45:20;20.40;86.90
14577;DHT22;7375;46.072;14.470;2022-10-16T05:47:47;20.40;86.80
14577;DHT22;7375;46.072;14.470;2022-10-16T05:50:14;20.40;86.80
14577;DHT22;7375;46.072;14.470;2022-10-16T05:52:40;20.40;86.80
14577;DHT22;7375;46.072;14.470;2022-10-16T05:55:07;20.40;86.90
14577;DHT22;7375;46.072;14.470;2022-10-16T05:57:34;20.40;86.90
14577;DHT22;7375;46.072;14.470;2022-10-16T06:00:02;20.40;86.90
14577;DHT22;7375;46.072;14.470;2022-10-16T06:02:29;20.40;86.80
14577;DHT22;7375;46.072;14.470;2022-10-16T06:04:56;20.50;87.00
14577;DHT22;7375;46.072;14.470;2022-10-16T06:07:23;20.40;86.90
14577;DHT22;7375;46.072;14.470;2022-10-16T06:09:53;20.50;87.10
14577;DHT22;7375;46.072;14.470;2022-10-16T06:12:20;20.50;87.00
14577;DHT22;7375;46.072;14.470;2022-10-16T06:14:51;20.50;87.00
14577;DHT22;7375;46.072;14.470;2022-10-16T06:17:20;20.50;87.20
14577;DHT22;7375;46.072;14.470;2022-10-16T06:19:46;20.50;87.60
14577;DHT22;7375;46.072;14.470;2022-10-16T06:22:13;20.50;87.60
14577;DHT22;7375;46.072;14.470;2022-10-16T06:24:40;20.50;86.90
14577;DHT22;7375;46.072;14.470;2022-10-16T06:27:06;20.50;86.60
14577;DHT22;7375;46.072;14.470;2022-10-16T06:29:33;20.50;86.60
14577;DHT22;7375;46.072;14.470;2022-10-16T06:32:00;20.50;86.70
14577;DHT22;7375;46.072;14.470;2022-10-16T06:34:28;20.50;86.80
14577;DHT22;7375;46.072;14.470;2022-10-16T06:36:55;20.50;86.70
14577;DHT22;7375;46.072;14.470;2022-10-16T06:39:22;20.50;86.70
14577;DHT22;7375;46.072;14.470;2022-10-16T06:41:49;20.50;86.60
14577;DHT22;7375;46.072;14.470;2022-10-16T06:44:15;20.50;86.80
14577;DHT22;7375;46.072;14.470;2022-10-16T06:46:42;20.50;87.00
14577;DHT22;7375;46.072;14.470;2022-10-16T06:49:09;20.50;87.00
14577;DHT22;7375;46.072;14.470;2022-10-16T06:51:37;20.50;86.90
14577;DHT22;7375;46.072;14.470;2022-10-16T06:54:06;20.60;86.90
14577;DHT22;7375;46.072;14.470;2022-10-16T06:56:33;20.60;86.80
14577;DHT22;7375;46.072;14.470;2022-10-16T06:59:00;20.60;86.70
14577;DHT22;7375;46.072;14.470;2022-10-16T07:01:27;20.60;86.50
14577;DHT22;7375;46.072;14.470;2022-10-16T07:03:54;20.50;85.90
14577;DHT22;7375;46.072;14.470;2022-10-16T07:06:21;20.50;85.50
14577;DHT22;7375;46.072;14.470;2022-10-16T07:08:50;20.50;84.30
14577;DHT22;7375;46.072;14.470;2022-10-16T07:11:20;20.50;83.50
14577;DHT22;7375;46.072;14.470;2022-10-16T07:13:48;20.50;83.20
14577;DHT22;7375;46.072;14.470;2022-10-16T07:16:16;20.50;83.10
14577;DHT22;7375;46.072;14.470;2022-10-16T07:18:43;20.60;82.70
14577;DHT22;7375;46.072;14.470;2022-10-16T07:21:11;20.50;82.20
14577;DHT22;7375;46.072;14.470;2022-10-16T07:23:39;20.50;81.90
14577;DHT22;7375;46.072;14.470;2022-10-16T07:26:08;20.60;81.80
14577;DHT22;7375;46.072;14.470;2022-10-16T07:28:35;20.60;81.80
14577;DHT22;7375;46.072;14.470;2022-10-16T07:31:02;20.60;81.40
14577;DHT22;7375;46.072;14.470;2022-10-16T07:33:29;20.60;81.40
14577;DHT22;7375;46.072;14.470;2022-10-16T07:35:56;20.60;81.60
14577;DHT22;7375;46.072;14.470;2022-10-16T07:38:23;20.60;81.60
14577;DHT22;7375;46.072;14.470;2022-10-16T07:40:55;20.60;81.60
14577;DHT22;7375;46.072;14.470;2022-10-16T07:43:24;20.60;81.60
14577;DHT22;7375;46.072;14.470;2022-10-16T07:45:53;20.70;81.60
14577;DHT22;7375;46.072;14.470;2022-10-16T07:48:21;20.70;81.70
14577;DHT22;7375;46.072;14.470;2022-10-16T07:50:48;20.70;82.00
14577;DHT22;7375;46.072;14.470;2022-10-16T07:53:15;20.80;81.80
14577;DHT22;7375;46.072;14.470;2022-10-16T07:55:42;20.80;81.80
14577;DHT22;7375;46.072;14.470;2022-10-16T07:58:08;20.80;81.60
14577;DHT22;7375;46.072;14.470;2022-10-16T08:00:37;20.90;81.60
14577;DHT22;7375;46.072;14.470;2022-10-16T08:03:07;20.90;81.40
14577;DHT22;7375;46.072;14.470;2022-10-16T08:05:37;20.90;81.30
14577;DHT22;7375;46.072;14.470;2022-10-16T08:08:04;21.00;80.90
14577;DHT22;7375;46.072;14.470;2022-10-16T08:10:33;21.00;80.50
14577;DHT22;7375;46.072;14.470;2022-10-16T08:13:00;21.00;80.20
14577;DHT22;7375;46.072;14.470;2022-10-16T08:15:27;21.00;80.00
14577;DHT22;7375;46.072;14.470;2022-10-16T08:17:56;21.10;79.90
14577;DHT22;7375;46.072;14.470;2022-10-16T08:20:23;21.10;79.70
14577;DHT22;7375;46.072;14.470;2022-10-16T08:22:50;21.10;79.50
14577;DHT22;7375;46.072;14.470;2022-10-16T08:25:17;21.10;79.30
14577;DHT22;7375;46.072;14.470;2022-10-16T08:27:44;21.10;79.10
14577;DHT22;7375;46.072;14.470;2022-10-16T08:30:11;21.20;78.90
14577;DHT22;7375;46.072;14.470;2022-10-16T08:32:38;21.20;78.60
14577;DHT22;7375;46.072;14.470;2022-10-16T08:35:07;21.30;78.50
14577;DHT22;7375;46.072;14.470;2022-10-16T08:37:34;21.30;78.30
14577;DHT22;7375;46.072;14.470;2022-10-16T08:40:05;21.30;78.20
14577;DHT22;7375;46.072;14.470;2022-10-16T08:42:39;21.30;78.00
14577;DHT22;7375;46.072;14.470;2022-10-16T08:48:02;21.30;77.80
14577;DHT22;7375;46.072;14.470;2022-10-16T08:50:33;21.30;77.80
14577;DHT22;7375;46.072;14.470;2022-10-16T08:53:03;21.30;77.70
14577;DHT22;7375;46.072;14.470;2022-10-16T08:55:32;21.40;77.50
14577;DHT22;7375;46.072;14.470;2022-10-16T08:58:00;21.40;77.20
14577;DHT22;7375;46.072;14.470;2022-10-16T09:00:27;21.40;77.00
14577;DHT22;7375;46.072;14.470;2022-10-16T09:02:56;21.40;77.00
14577;DHT22;7375;46.072;14.470;2022-10-16T09:05:41;21.50;77.00
14577;DHT22;7375;46.072;14.470;2022-10-16T09:08:14;21.50;76.80
14577;DHT22;7375;46.072;14.470;2022-10-16T09:10:44;21.60;76.70
14577;DHT22;7375;46.072;14.470;2022-10-16T09:13:18;21.70;76.30
14577;DHT22;7375;46.072;14.470;2022-10-16T09:15:48;21.80;75.90
14577;DHT22;7375;46.072;14.470;2022-10-16T09:18:20;21.80;75.70
14577;DHT22;7375;46.072;14.470;2022-10-16T09:20:55;21.90;75.30
14577;DHT22;7375;46.072;14.470;2022-10-16T09:23:30;21.90;75.20
14577;DHT22;7375;46.072;14.470;2022-10-16T09:25:58;21.90;74.90
14577;DHT22;7375;46.072;14.470;2022-10-16T09:28:25;21.90;74.70
14577;DHT22;7375;46.072;14.470;2022-10-16T09:30:54;22.00;74.70
14577;DHT22;7375;46.072;14.470;2022-10-16T09:33:24;22.00;74.60
14577;DHT22;7375;46.072;14.470;2022-10-16T09:35:54;22.10;74.40
14577;DHT22;7375;46.072;14.470;2022-10-16T09:38:28;22.10;74.00
14577;DHT22;7375;46.072;14.470;2022-10-16T09:40:58;22.30;73.70
14577;DHT22;7375;46.072;14.470;2022-10-16T09:43:31;22.20;73.20
14577;DHT22;7375;46.072;14.470;2022-10-16T09:46:03;22.30;73.20
14577;DHT22;7375;46.072;14.470;2022-10-16T09:48:33;22.30;73.30
14577;DHT22;7375;46.072;14.470;2022-10-16T09:51:04;22.30;72.90
14577;DHT22;7375;46.072;14.470;2022-10-16T09:53:41;22.20;72.80
14577;DHT22;7375;46.072;14.470;2022-10-16T09:56:11;22.30;73.10
14577;DHT22;7375;46.072;14.470;2022-10-16T09:58:43;22.50;72.10
14577;DHT22;7375;46.072;14.470;2022-10-16T10:01:14;22.70;71.50
14577;DHT22;7375;46.072;14.470;2022-10-16T10:03:44;22.70;71.00
14577;DHT22;7375;46.072;14.470;2022-10-16T10:06:18;22.70;70.90
14577;DHT22;7375;46.072;14.470;2022-10-16T10:08:58;22.70;70.70
14577;DHT22;7375;46.072;14.470;2022-10-16T10:14:20;22.70;70.40
14577;DHT22;7375;46.072;14.470;2022-10-16T10:16:48;22.70;70.60
14577;DHT22;7375;46.072;14.470;2022-10-16T10:19:15;22.70;70.30
14577;DHT22;7375;46.072;14.470;2022-10-16T10:21:44;22.70;70.40
14577;DHT22;7375;46.072;14.470;2022-10-16T10:24:11;22.70;70.30
14577;DHT22;7375;46.072;14.470;2022-10-16T10:26:43;22.60;70.20
14577;DHT22;7375;46.072;14.470;2022-10-16T10:29:12;22.60;70.40
14577;DHT22;7375;46.072;14.470;2022-10-16T10:31:44;22.60;70.30
14577;DHT22;7375;46.072;14.470;2022-10-16T10:34:18;22.60;70.40
14577;DHT22;7375;46.072;14.470;2022-10-16T10:36:49;22.60;70.50
14577;DHT22;7375;46.072;14.470;2022-10-16T10:39:23;22.60;70.40
14577;DHT22;7375;46.072;14.470;2022-10-16T10:44:46;22.60;70.20
14577;DHT22;7375;46.072;14.470;2022-10-16T10:47:17;22.60;70.00
14577;DHT22;7375;46.072;14.470;2022-10-16T10:49:54;22.60;70.00
14577;DHT22;7375;46.072;14.470;2022-10-16T10:52:31;22.60;70.10
14577;DHT22;7375;46.072;14.470;2022-10-16T10:55:09;22.60;70.10
14577;DHT22;7375;46.072;14.470;2022-10-16T10:57:37;22.60;70.10
14577;DHT22;7375;46.072;14.470;2022-10-16T11:00:10;22.60;70.10
14577;DHT22;7375;46.072;14.470;2022-10-16T11:02:40;22.60;70.10
14577;DHT22;7375;46.072;14.470;2022-10-16T11:05:20;22.60;70.70
14577;DHT22;7375;46.072;14.470;2022-10-16T11:07:54;22.60;70.00
14577;DHT22;7375;46.072;14.470;2022-10-16T11:10:24;22.50;69.90
14577;DHT22;7375;46.072;14.470;2022-10-16T11:12:53;22.50;70.00
14577;DHT22;7375;46.072;14.470;2022-10-16T11:15:23;22.50;69.90
14577;DHT22;7375;46.072;14.470;2022-10-16T11:17:52;22.50;69.90
14577;DHT22;7375;46.072;14.470;2022-10-16T11:20:21;22.50;70.00
14577;DHT22;7375;46.072;14.470;2022-10-16T11:22:50;22.50;70.00
14577;DHT22;7375;46.072;14.470;2022-10-16T11:25:20;22.50;70.10
14577;DHT22;7375;46.072;14.470;2022-10-16T11:27:49;22.50;70.20
14577;DHT22;7375;46.072;14.470;2022-10-16T11:30:18;22.40;70.00
14577;DHT22;7375;46.072;14.470;2022-10-16T11:32:56;22.50;70.40
14577;DHT22;7375;46.072;14.470;2022-10-16T11:35:31;22.40;70.40
14577;DHT22;7375;46.072;14.470;2022-10-16T11:38:00;22.40;70.30
14577;DHT22;7375;46.072;14.470;2022-10-16T11:40:31;22.40;70.50
14577;DHT22;7375;46.072;14.470;2022-10-16T11:43:01;22.30;70.50
14577;DHT22;7375;46.072;14.470;2022-10-16T11:45:30;22.40;70.70
14577;DHT22;7375;46.072;14.470;2022-10-16T11:48:00;22.30;70.70
14577;DHT22;7375;46.072;14.470;2022-10-16T11:50:29;22.30;70.80
14577;DHT22;7375;46.072;14.470;2022-10-16T11:52:59;22.30;70.70
14577;DHT22;7375;46.072;14.470;2022-10-16T11:55:27;22.30;70.90
14577;DHT22;7375;46.072;14.470;2022-10-16T11:57:59;22.30;71.00
14577;DHT22;7375;46.072;14.470;2022-10-16T12:00:28;22.20;71.00
14577;DHT22;7375;46.072;14.470;2022-10-16T12:02:58;22.20;71.00
14577;DHT22;7375;46.072;14.470;2022-10-16T12:05:35;22.30;71.10
14577;DHT22;7375;46.072;14.470;2022-10-16T12:08:10;22.30;71.20
14577;DHT22;7375;46.072;14.470;2022-10-16T12:10:38;22.30;71.20
14577;DHT22;7375;46.072;14.470;2022-10-16T12:15:48;22.20;71.20
14577;DHT22;7375;46.072;14.470;2022-10-16T12:18:21;22.20;71.20
14577;DHT22;7375;46.072;14.470;2022-10-16T12:20:54;22.20;71.20
14577;DHT22;7375;46.072;14.470;2022-10-16T12:23:25;22.20;71.20
14577;DHT22;7375;46.072;14.470;2022-10-16T12:25:54;22.20;71.20
14577;DHT22;7375;46.072;14.470;2022-10-16T12:28:25;22.20;71.30
14577;DHT22;7375;46.072;14.470;2022-10-16T12:30:54;22.20;71.30
14577;DHT22;7375;46.072;14.470;2022-10-16T12:33:24;22.20;71.30
14577;DHT22;7375;46.072;14.470;2022-10-16T12:35:54;22.20;71.30
14577;DHT22;7375;46.072;14.470;2022-10-16T12:38:21;22.20;71.40
14577;DHT22;7375;46.072;14.470;2022-10-16T12:40:57;22.20;71.40
14577;DHT22;7375;46.072;14.470;2022-10-16T12:43:35;22.20;71.40
14577;DHT22;7375;46.072;14.470;2022-10-16T12:46:04;22.20;71.40
14577;DHT22;7375;46.072;14.470;2022-10-16T12:48:32;22.10;71.30
14577;DHT22;7375;46.072;14.470;2022-10-16T12:51:09;22.20;71.40
14577;DHT22;7375;46.072;14.470;2022-10-16T12:53:35;22.10;71.30
14577;DHT22;7375;46.072;14.470;2022-10-16T12:56:04;22.10;71.30
14577;DHT22;7375;46.072;14.470;2022-10-16T12:58:43;22.10;71.40
14577;DHT22;7375;46.072;14.470;2022-10-16T13:01:16;22.10;71.40
14577;DHT22;7375;46.072;14.470;2022-10-16T13:03:56;22.10;71.40
14577;DHT22;7375;46.072;14.470;2022-10-16T13:06:33;22.20;71.40
14577;DHT22;7375;46.072;14.470;2022-10-16T13:09:10;22.10;71.30
14577;DHT22;7375;46.072;14.470;2022-10-16T13:11:45;22.20;71.40
14577;DHT22;7375;46.072;14.470;2022-10-16T13:14:20;22.20;71.40
14577;DHT22;7375;46.072;14.470;2022-10-16T13:16:56;22.10;71.40
14577;DHT22;7375;46.072;14.470;2022-10-16T13:19:30;22.20;71.40
14577;DHT22;7375;46.072;14.470;2022-10-16T13:22:02;22.10;71.30
14577;DHT22;7375;46.072;14.470;2022-10-16T13:24:39;22.10;71.40
14577;DHT22;7375;46.072;14.470;2022-10-16T13:27:10;22.10;71.40
14577;DHT22;7375;46.072;14.470;2022-10-16T13:29:40;22.10;71.40
14577;DHT22;7375;46.072;14.470;2022-10-16T13:32:10;22.10;71.40
14577;DHT22;7375;46.072;14.470;2022-10-16T13:34:43;22.10;71.40
14577;DHT22;7375;46.072;14.470;2022-10-16T13:37:15;22.10;71.40
14577;DHT22;7375;46.072;14.470;2022-10-16T13:39:46;22.10;71.40
14577;DHT22;7375;46.072;14.470;2022-10-16T13:42:15;22.20;71.40
14577;DHT22;7375;46.072;14.470;2022-10-16T13:44:46;22.10;71.40
14577;DHT22;7375;46.072;14.470;2022-10-16T13:47:18;22.20;71.50
14577;DHT22;7375;46.072;14.470;2022-10-16T13:49:45;22.10;71.40
14577;DHT22;7375;46.072;14.470;2022-10-16T13:52:17;22.10;71.40
14577;DHT22;7375;46.072;14.470;2022-10-16T13:54:44;22.10;71.40
14577;DHT22;7375;46.072;14.470;2022-10-16T13:57:12;22.20;71.50
14577;DHT22;7375;46.072;14.470;2022-10-16T13:59:39;22.10;71.40
14577;DHT22;7375;46.072;14.470;2022-10-16T14:02:10;22.20;71.60
14577;DHT22;7375;46.072;14.470;2022-10-16T14:04:39;22.10;71.50
14577;DHT22;7375;46.072;14.470;2022-10-16T14:07:12;22.10;71.50
14577;DHT22;7375;46.072;14.470;2022-10-16T14:09:39;22.10;71.40
14577;DHT22;7375;46.072;14.470;2022-10-16T14:12:08;22.10;71.40
14577;DHT22;7375;46.072;14.470;2022-10-16T14:14:39;22.10;71.40
14577;DHT22;7375;46.072;14.470;2022-10-16T14:17:13;22.10;71.50
14577;DHT22;7375;46.072;14.470;2022-10-16T14:19:44;22.10;71.50
14577;DHT22;7375;46.072;14.470;2022-10-16T14:22:19;22.10;71.50
14577;DHT22;7375;46.072;14.470;2022-10-16T14:24:47;22.10;71.50
14577;DHT22;7375;46.072;14.470;2022-10-16T14:27:20;22.10;71.50
14577;DHT22;7375;46.072;14.470;2022-10-16T14:29:50;22.10;71.50
14577;DHT22;7375;46.072;14.470;2022-10-16T14:32:22;22.10;71.50
14577;DHT22;7375;46.072;14.470;2022-10-16T14:34:53;22.10;71.60
14577;DHT22;7375;46.072;14.470;2022-10-16T14:37:27;22.10;71.60
14577;DHT22;7375;46.072;14.470;2022-10-16T14:39:55;22.10;71.60
14577;DHT22;7375;46.072;14.470;2022-10-16T14:42:23;22.10;71.60
14577;DHT22;7375;46.072;14.470;2022-10-16T14:44:50;22.10;71.60
14577;DHT22;7375;46.072;14.470;2022-10-16T14:47:21;22.10;71.60
14577;DHT22;7375;46.072;14.470;2022-10-16T14:49:51;22.10;71.70
14577;DHT22;7375;46.072;14.470;2022-10-16T14:52:24;22.00;71.60
14577;DHT22;7375;46.072;14.470;2022-10-16T14:54:54;22.10;71.70
14577;DHT22;7375;46.072;14.470;2022-10-16T14:57:22;22.00;71.60
14577;DHT22;7375;46.072;14.470;2022-10-16T14:59:51;22.00;71.70
14577;DHT22;7375;46.072;14.470;2022-10-16T15:02:19;22.00;71.70
14577;DHT22;7375;46.072;14.470;2022-10-16T15:04:47;22.10;71.80
14577;DHT22;7375;46.072;14.470;2022-10-16T15:07:15;22.00;71.80
14577;DHT22;7375;46.072;14.470;2022-10-16T15:09:43;22.00;71.80
14577;DHT22;7375;46.072;14.470;2022-10-16T15:12:10;22.00;71.90
14577;DHT22;7375;46.072;14.470;2022-10-16T15:14:37;22.00;71.90
14577;DHT22;7375;46.072;14.470;2022-10-16T15:17:04;22.00;71.90
14577;DHT22;7375;46.072;14.470;2022-10-16T15:19:31;22.00;72.00
14577;DHT22;7375;46.072;14.470;2022-10-16T15:21:59;21.90;71.90
14577;DHT22;7375;46.072;14.470;2022-10-16T15:24:28;21.90;72.00
14577;DHT22;7375;46.072;14.470;2022-10-16T15:26:56;21.90;72.10
14577;DHT22;7375;46.072;14.470;2022-10-16T15:29:23;22.00;72.20
14577;DHT22;7375;46.072;14.470;2022-10-16T15:31:50;21.90;72.20
14577;DHT22;7375;46.072;14.470;2022-10-16T15:34:17;21.90;72.30
14577;DHT22;7375;46.072;14.470;2022-10-16T15:36:45;21.90;72.30
14577;DHT22;7375;46.072;14.470;2022-10-16T15:39:14;21.80;72.20
14577;DHT22;7375;46.072;14.470;2022-10-16T15:41:49;21.90;72.50
14577;DHT22;7375;46.072;14.470;2022-10-16T15:44:20;21.90;72.50
14577;DHT22;7375;46.072;14.470;2022-10-16T15:46:48;21.80;72.50
14577;DHT22;7375;46.072;14.470;2022-10-16T15:49:15;21.80;72.60
14577;DHT22;7375;46.072;14.470;2022-10-16T15:51:51;21.80;72.70